sensor_id;sensor_type;location;lat;lon;timestamp;P1;durP1;ratioP1;P2;durP2;ratioP2
19219;SDS011;9744;49.364;7.484;2023-08-17T00:01:02;4.38;;;3.55;;
19219;SDS011;9744;49.364;7.484;2023-08-17T00:03:29;4.50;;;3.53;;
19219;SDS011;9744;49.364;7.484;2023-08-17T00:05:56;7.43;;;3.70;;
19219;SDS011;9744;49.364;7.484;2023-08-17T00:08:23;3.60;;;3.13;;
19219;SDS011;9744;49.364;7.484;2023-08-17T00:10:51;3.78;;;2.55;;
19219;SDS011;9744;49.364;7.484;2023-08-17T00:13:19;3.20;;;2.67;;
19219;SDS011;9744;49.364;7.484;2023-08-17T00:15:47;2.90;;;2.10;;
19219;SDS011;9744;49.364;7.484;2023-08-17T00:18:14;2.15;;;1.52;;
19219;SDS011;9744;49.364;7.484;2023-08-17T00:20:42;2.20;;;1.35;;
19219;SDS011;9744;49.364;7.484;2023-08-17T00:23:10;1.60;;;1.33;;
19219;SDS011;9744;49.364;7.484;2023-08-17T00:25:37;5.13;;;1.90;;
19219;SDS011;9744;49.364;7.484;2023-08-17T00:28:04;3.80;;;1.70;;
19219;SDS011;9744;49.364;7.484;2023-08-17T00:30:32;3.00;;;1.58;;
19219;SDS011;9744;49.364;7.484;2023-08-17T00:33:04;3.45;;;1.85;;
19219;SDS011;9744;49.364;7.484;2023-08-17T00:35:32;4.18;;;1.90;;
19219;SDS011;9744;49.364;7.484;2023-08-17T00:38:02;3.15;;;2.00;;
19219;SDS011;9744;49.364;7.484;2023-08-17T00:40:30;2.25;;;1.70;;
19219;SDS011;9744;49.364;7.484;2023-08-17T00:42:57;5.53;;;1.77;;
19219;SDS011;9744;49.364;7.484;2023-08-17T00:45:25;3.47;;;1.48;;
19219;SDS011;9744;49.364;7.484;2023-08-17T00:47:54;1.98;;;1.38;;
19219;SDS011;9744;49.364;7.484;2023-08-17T00:50:26;1.88;;;1.65;;
19219;SDS011;9744;49.364;7.484;2023-08-17T00:52:55;2.60;;;2.40;;
19219;SDS011;9744;49.364;7.484;2023-08-17T00:55:23;2.53;;;2.30;;
19219;SDS011;9744;49.364;7.484;2023-08-17T00:57:51;5.68;;;2.67;;
19219;SDS011;9744;49.364;7.484;2023-08-17T01:00:19;4.05;;;2.30;;
19219;SDS011;9744;49.364;7.484;2023-08-17T01:02:47;4.60;;;3.10;;
19219;SDS011;9744;49.364;7.484;2023-08-17T01:05:19;4.57;;;2.85;;
19219;SDS011;9744;49.364;7.484;2023-08-17T01:07:48;4.68;;;3.05;;
19219;SDS011;9744;49.364;7.484;2023-08-17T01:10:15;4.53;;;3.28;;
19219;SDS011;9744;49.364;7.484;2023-08-17T01:12:44;6.50;;;3.90;;
19219;SDS011;9744;49.364;7.484;2023-08-17T01:15:20;4.28;;;3.25;;
19219;SDS011;9744;49.364;7.484;2023-08-17T01:17:52;3.60;;;2.80;;
19219;SDS011;9744;49.364;7.484;2023-08-17T01:20:24;3.75;;;3.30;;
19219;SDS011;9744;49.364;7.484;2023-08-17T01:22:55;4.00;;;3.00;;
19219;SDS011;9744;49.364;7.484;2023-08-17T01:25:27;4.30;;;3.58;;
19219;SDS011;9744;49.364;7.484;2023-08-17T01:27:54;4.28;;;3.45;;
19219;SDS011;9744;49.364;7.484;2023-08-17T01:30:22;4.75;;;3.83;;
19219;SDS011;9744;49.364;7.484;2023-08-17T01:32:51;4.97;;;3.72;;
19219;SDS011;9744;49.364;7.484;2023-08-17T01:35:26;5.53;;;3.65;;
19219;SDS011;9744;49.364;7.484;2023-08-17T01:37:58;5.75;;;3.63;;
19219;SDS011;9744;49.364;7.484;2023-08-17T01:40:30;6.15;;;4.35;;
19219;SDS011;9744;49.364;7.484;2023-08-17T01:43:00;6.53;;;4.38;;
19219;SDS011;9744;49.364;7.484;2023-08-17T01:45:28;6.40;;;4.53;;
19219;SDS011;9744;49.364;7.484;2023-08-17T01:47:56;9.60;;;4.00;;
19219;SDS011;9744;49.364;7.484;2023-08-17T01:50:24;4.57;;;3.40;;
19219;SDS011;9744;49.364;7.484;2023-08-17T01:52:51;3.75;;;2.97;;
19219;SDS011;9744;49.364;7.484;2023-08-17T01:55:20;4.03;;;2.83;;
19219;SDS011;9744;49.364;7.484;2023-08-17T01:57:49;3.38;;;2.88;;
19219;SDS011;9744;49.364;7.484;2023-08-17T02:00:16;2.28;;;2.08;;
19219;SDS011;9744;49.364;7.484;2023-08-17T02:02:44;2.15;;;1.95;;
19219;SDS011;9744;49.364;7.484;2023-08-17T02:05:11;2.25;;;1.95;;
19219;SDS011;9744;49.364;7.484;2023-08-17T02:07:39;2.03;;;1.83;;
19219;SDS011;9744;49.364;7.484;2023-08-17T02:10:07;2.70;;;1.30;;
19219;SDS011;9744;49.364;7.484;2023-08-17T02:12:34;2.50;;;1.80;;
19219;SDS011;9744;49.364;7.484;2023-08-17T02:15:03;1.67;;;1.58;;
19219;SDS011;9744;49.364;7.484;2023-08-17T02:17:31;1.70;;;1.60;;
19219;SDS011;9744;49.364;7.484;2023-08-17T02:19:58;2.08;;;1.70;;
19219;SDS011;9744;49.364;7.484;2023-08-17T02:22:25;1.65;;;1.55;;
19219;SDS011;9744;49.364;7.484;2023-08-17T02:24:54;1.58;;;1.48;;
19219;SDS011;9744;49.364;7.484;2023-08-17T02:27:21;1.30;;;1.20;;
19219;SDS011;9744;49.364;7.484;2023-08-17T02:29:48;1.58;;;1.42;;
19219;SDS011;9744;49.364;7.484;2023-08-17T02:32:17;1.00;;;0.98;;
19219;SDS011;9744;49.364;7.484;2023-08-17T02:34:44;1.13;;;1.02;;
19219;SDS011;9744;49.364;7.484;2023-08-17T02:37:11;2.00;;;1.20;;
19219;SDS011;9744;49.364;7.484;2023-08-17T02:39:39;1.88;;;1.00;;
19219;SDS011;9744;49.364;7.484;2023-08-17T02:42:06;2.80;;;1.40;;
19219;SDS011;9744;49.364;7.484;2023-08-17T02:44:34;1.33;;;1.10;;
19219;SDS011;9744;49.364;7.484;2023-08-17T02:47:03;1.20;;;1.10;;
19219;SDS011;9744;49.364;7.484;2023-08-17T02:49:32;2.42;;;1.30;;
19219;SDS011;9744;49.364;7.484;2023-08-17T02:51:59;1.27;;;1.10;;
19219;SDS011;9744;49.364;7.484;2023-08-17T02:54:26;1.23;;;1.08;;
19219;SDS011;9744;49.364;7.484;2023-08-17T02:56:54;1.02;;;0.80;;
19219;SDS011;9744;49.364;7.484;2023-08-17T02:59:21;1.10;;;1.00;;
19219;SDS011;9744;49.364;7.484;2023-08-17T03:01:48;1.30;;;1.20;;
19219;SDS011;9744;49.364;7.484;2023-08-17T03:04:16;1.30;;;1.20;;
19219;SDS011;9744;49.364;7.484;2023-08-17T03:06:44;1.48;;;1.17;;
19219;SDS011;9744;49.364;7.484;2023-08-17T03:09:12;1.17;;;1.08;;
19219;SDS011;9744;49.364;7.484;2023-08-17T03:11:39;0.80;;;0.80;;
19219;SDS011;9744;49.364;7.484;2023-08-17T03:14:06;0.95;;;0.88;;
19219;SDS011;9744;49.364;7.484;2023-08-17T03:16:34;1.27;;;1.10;;
19219;SDS011;9744;49.364;7.484;2023-08-17T03:19:01;1.00;;;1.00;;
19219;SDS011;9744;49.364;7.484;2023-08-17T03:21:29;1.40;;;1.30;;
19219;SDS011;9744;49.364;7.484;2023-08-17T03:23:58;1.55;;;1.45;;
19219;SDS011;9744;49.364;7.484;2023-08-17T03:26:25;1.45;;;1.35;;
19219;SDS011;9744;49.364;7.484;2023-08-17T03:28:53;2.33;;;1.30;;
19219;SDS011;9744;49.364;7.484;2023-08-17T03:31:20;1.50;;;1.30;;
19219;SDS011;9744;49.364;7.484;2023-08-17T03:33:48;1.27;;;1.17;;
19219;SDS011;9744;49.364;7.484;2023-08-17T03:36:15;2.63;;;0.98;;
19219;SDS011;9744;49.364;7.484;2023-08-17T03:38:42;0.90;;;0.88;;
19219;SDS011;9744;49.364;7.484;2023-08-17T03:41:11;1.05;;;0.95;;
19219;SDS011;9744;49.364;7.484;2023-08-17T03:43:39;0.90;;;0.90;;
19219;SDS011;9744;49.364;7.484;2023-08-17T03:46:06;0.73;;;0.73;;
19219;SDS011;9744;49.364;7.484;2023-08-17T03:48:34;0.70;;;0.70;;
19219;SDS011;9744;49.364;7.484;2023-08-17T03:51:01;0.93;;;0.70;;
19219;SDS011;9744;49.364;7.484;2023-08-17T03:53:29;0.80;;;0.80;;
19219;SDS011;9744;49.364;7.484;2023-08-17T03:55:57;0.80;;;0.80;;
19219;SDS011;9744;49.364;7.484;2023-08-17T03:58:29;0.90;;;0.90;;
19219;SDS011;9744;49.364;7.484;2023-08-17T04:01:00;0.75;;;0.70;;
19219;SDS011;9744;49.364;7.484;2023-08-17T04:03:30;0.77;;;0.77;;
19219;SDS011;9744;49.364;7.484;2023-08-17T04:05:58;0.73;;;0.73;;
19219;SDS011;9744;49.364;7.484;2023-08-17T04:08:31;0.95;;;0.80;;
19219;SDS011;9744;49.364;7.484;2023-08-17T04:10:58;2.42;;;0.85;;
19219;SDS011;9744;49.364;7.484;2023-08-17T04:13:27;2.50;;;0.75;;
19219;SDS011;9744;49.364;7.484;2023-08-17T04:15:55;0.63;;;0.60;;
19219;SDS011;9744;49.364;7.484;2023-08-17T04:18:23;0.70;;;0.70;;
19219;SDS011;9744;49.364;7.484;2023-08-17T04:20:51;1.83;;;0.90;;
19219;SDS011;9744;49.364;7.484;2023-08-17T04:23:18;1.83;;;1.27;;
19219;SDS011;9744;49.364;7.484;2023-08-17T04:25:46;0.85;;;0.85;;
19219;SDS011;9744;49.364;7.484;2023-08-17T04:28:14;0.90;;;0.90;;
19219;SDS011;9744;49.364;7.484;2023-08-17T04:30:43;0.90;;;0.90;;
19219;SDS011;9744;49.364;7.484;2023-08-17T04:33:10;1.10;;;1.10;;
19219;SDS011;9744;49.364;7.484;2023-08-17T04:35:40;0.93;;;0.90;;
19219;SDS011;9744;49.364;7.484;2023-08-17T04:38:08;1.00;;;1.00;;
19219;SDS011;9744;49.364;7.484;2023-08-17T04:40:36;1.00;;;0.90;;
19219;SDS011;9744;49.364;7.484;2023-08-17T04:43:04;1.67;;;0.90;;
19219;SDS011;9744;49.364;7.484;2023-08-17T04:45:31;0.90;;;0.90;;
19219;SDS011;9744;49.364;7.484;2023-08-17T04:48:00;1.10;;;1.00;;
19219;SDS011;9744;49.364;7.484;2023-08-17T04:50:30;1.10;;;1.00;;
19219;SDS011;9744;49.364;7.484;2023-08-17T04:52:59;0.93;;;0.93;;
19219;SDS011;9744;49.364;7.484;2023-08-17T04:55:26;1.05;;;1.05;;
19219;SDS011;9744;49.364;7.484;2023-08-17T04:57:54;1.85;;;1.42;;
19219;SDS011;9744;49.364;7.484;2023-08-17T05:00:22;4.38;;;1.42;;
19219;SDS011;9744;49.364;7.484;2023-08-17T05:02:53;7.45;;;1.60;;
19219;SDS011;9744;49.364;7.484;2023-08-17T05:05:25;1.75;;;1.65;;
19219;SDS011;9744;49.364;7.484;2023-08-17T05:07:53;0.93;;;0.93;;
19219;SDS011;9744;49.364;7.484;2023-08-17T05:10:20;1.00;;;1.00;;
19219;SDS011;9744;49.364;7.484;2023-08-17T05:12:47;1.35;;;0.82;;
19219;SDS011;9744;49.364;7.484;2023-08-17T05:15:15;1.25;;;1.23;;
19219;SDS011;9744;49.364;7.484;2023-08-17T05:17:43;0.90;;;0.90;;
19219;SDS011;9744;49.364;7.484;2023-08-17T05:20:11;0.88;;;0.88;;
19219;SDS011;9744;49.364;7.484;2023-08-17T05:22:41;1.40;;;1.30;;
19219;SDS011;9744;49.364;7.484;2023-08-17T05:25:08;1.35;;;0.88;;
19219;SDS011;9744;49.364;7.484;2023-08-17T05:27:37;1.25;;;1.15;;
19219;SDS011;9744;49.364;7.484;2023-08-17T05:30:05;1.30;;;1.20;;
19219;SDS011;9744;49.364;7.484;2023-08-17T05:32:34;1.30;;;1.20;;
19219;SDS011;9744;49.364;7.484;2023-08-17T05:35:01;3.90;;;1.58;;
19219;SDS011;9744;49.364;7.484;2023-08-17T05:37:29;1.00;;;1.00;;
19219;SDS011;9744;49.364;7.484;2023-08-17T05:39:58;1.38;;;1.00;;
19219;SDS011;9744;49.364;7.484;2023-08-17T05:42:25;1.25;;;1.15;;
19219;SDS011;9744;49.364;7.484;2023-08-17T05:44:53;0.85;;;0.80;;
19219;SDS011;9744;49.364;7.484;2023-08-17T05:47:21;0.90;;;0.90;;
19219;SDS011;9744;49.364;7.484;2023-08-17T05:49:49;0.77;;;0.77;;
19219;SDS011;9744;49.364;7.484;2023-08-17T05:52:17;1.98;;;1.73;;
19219;SDS011;9744;49.364;7.484;2023-08-17T05:54:44;3.75;;;2.60;;
19219;SDS011;9744;49.364;7.484;2023-08-17T05:57:15;2.40;;;2.20;;
19219;SDS011;9744;49.364;7.484;2023-08-17T05:59:42;2.30;;;1.98;;
19219;SDS011;9744;49.364;7.484;2023-08-17T06:02:09;2.40;;;1.98;;
19219;SDS011;9744;49.364;7.484;2023-08-17T06:04:37;1.70;;;1.60;;
19219;SDS011;9744;49.364;7.484;2023-08-17T06:07:06;1.85;;;1.75;;
19219;SDS011;9744;49.364;7.484;2023-08-17T06:09:34;2.42;;;2.20;;
19219;SDS011;9744;49.364;7.484;2023-08-17T06:12:01;2.90;;;2.30;;
19219;SDS011;9744;49.364;7.484;2023-08-17T06:14:31;2.55;;;2.15;;
19219;SDS011;9744;49.364;7.484;2023-08-17T06:16:59;2.25;;;2.05;;
19219;SDS011;9744;49.364;7.484;2023-08-17T06:19:27;2.40;;;2.00;;
19219;SDS011;9744;49.364;7.484;2023-08-17T06:21:55;2.85;;;2.30;;
19219;SDS011;9744;49.364;7.484;2023-08-17T06:24:22;4.15;;;2.50;;
19219;SDS011;9744;49.364;7.484;2023-08-17T06:26:50;2.97;;;2.70;;
19219;SDS011;9744;49.364;7.484;2023-08-17T06:29:18;3.10;;;2.60;;
19219;SDS011;9744;49.364;7.484;2023-08-17T06:31:46;3.00;;;2.70;;
19219;SDS011;9744;49.364;7.484;2023-08-17T06:34:16;4.15;;;3.20;;
19219;SDS011;9744;49.364;7.484;2023-08-17T06:36:43;3.95;;;2.25;;
19219;SDS011;9744;49.364;7.484;2023-08-17T06:39:24;3.45;;;2.40;;
19219;SDS011;9744;49.364;7.484;2023-08-17T06:41:53;4.47;;;3.90;;
19219;SDS011;9744;49.364;7.484;2023-08-17T06:44:21;5.65;;;4.43;;
19219;SDS011;9744;49.364;7.484;2023-08-17T06:46:49;5.80;;;4.10;;
19219;SDS011;9744;49.364;7.484;2023-08-17T06:49:17;5.10;;;3.20;;
19219;SDS011;9744;49.364;7.484;2023-08-17T06:51:44;3.13;;;2.83;;
19219;SDS011;9744;49.364;7.484;2023-08-17T06:54:12;3.30;;;2.72;;
19219;SDS011;9744;49.364;7.484;2023-08-17T06:56:40;2.25;;;2.05;;
19219;SDS011;9744;49.364;7.484;2023-08-17T06:59:07;2.80;;;1.85;;
19219;SDS011;9744;49.364;7.484;2023-08-17T07:01:35;1.90;;;1.80;;
19219;SDS011;9744;49.364;7.484;2023-08-17T07:04:04;1.60;;;1.50;;
19219;SDS011;9744;49.364;7.484;2023-08-17T07:06:31;1.80;;;1.58;;
19219;SDS011;9744;49.364;7.484;2023-08-17T07:09:00;1.55;;;1.45;;
19219;SDS011;9744;49.364;7.484;2023-08-17T07:11:29;2.33;;;2.10;;
19219;SDS011;9744;49.364;7.484;2023-08-17T07:13:56;2.85;;;2.30;;
19219;SDS011;9744;49.364;7.484;2023-08-17T07:16:23;3.35;;;3.05;;
19219;SDS011;9744;49.364;7.484;2023-08-17T07:18:51;4.45;;;3.50;;
19219;SDS011;9744;49.364;7.484;2023-08-17T07:21:19;8.23;;;4.70;;
19219;SDS011;9744;49.364;7.484;2023-08-17T07:23:47;7.28;;;5.75;;
19219;SDS011;9744;49.364;7.484;2023-08-17T07:26:17;5.95;;;4.70;;
19219;SDS011;9744;49.364;7.484;2023-08-17T07:28:45;6.93;;;5.05;;
19219;SDS011;9744;49.364;7.484;2023-08-17T07:31:13;6.45;;;5.68;;
19219;SDS011;9744;49.364;7.484;2023-08-17T07:33:41;4.80;;;4.10;;
19219;SDS011;9744;49.364;7.484;2023-08-17T07:36:08;4.45;;;3.88;;
19219;SDS011;9744;49.364;7.484;2023-08-17T07:38:37;4.00;;;3.47;;
19219;SDS011;9744;49.364;7.484;2023-08-17T07:41:04;3.85;;;3.20;;
19219;SDS011;9744;49.364;7.484;2023-08-17T07:43:31;5.68;;;3.78;;
19219;SDS011;9744;49.364;7.484;2023-08-17T07:45:58;3.92;;;3.53;;
19219;SDS011;9744;49.364;7.484;2023-08-17T07:48:25;2.63;;;2.38;;
19219;SDS011;9744;49.364;7.484;2023-08-17T07:50:58;2.42;;;2.22;;
19219;SDS011;9744;49.364;7.484;2023-08-17T07:53:27;2.80;;;2.55;;
19219;SDS011;9744;49.364;7.484;2023-08-17T07:55:55;3.42;;;3.00;;
19219;SDS011;9744;49.364;7.484;2023-08-17T07:58:23;2.72;;;2.20;;
19219;SDS011;9744;49.364;7.484;2023-08-17T08:00:50;2.60;;;2.40;;
19219;SDS011;9744;49.364;7.484;2023-08-17T08:03:17;2.50;;;2.30;;
19219;SDS011;9744;49.364;7.484;2023-08-17T08:05:45;3.17;;;2.17;;
19219;SDS011;9744;49.364;7.484;2023-08-17T08:08:12;2.47;;;2.28;;
19219;SDS011;9744;49.364;7.484;2023-08-17T08:10:42;2.53;;;2.33;;
19219;SDS011;9744;49.364;7.484;2023-08-17T08:13:11;2.65;;;2.42;;
19219;SDS011;9744;49.364;7.484;2023-08-17T08:15:39;2.47;;;2.03;;
19219;SDS011;9744;49.364;7.484;2023-08-17T08:18:06;3.00;;;2.70;;
19219;SDS011;9744;49.364;7.484;2023-08-17T08:20:34;6.07;;;4.03;;
19219;SDS011;9744;49.364;7.484;2023-08-17T08:23:01;4.97;;;4.10;;
19219;SDS011;9744;49.364;7.484;2023-08-17T08:25:30;5.45;;;3.50;;
19219;SDS011;9744;49.364;7.484;2023-08-17T08:27:57;5.05;;;3.58;;
19219;SDS011;9744;49.364;7.484;2023-08-17T08:30:26;4.30;;;3.63;;
19219;SDS011;9744;49.364;7.484;2023-08-17T08:32:53;9.05;;;5.18;;
19219;SDS011;9744;49.364;7.484;2023-08-17T08:35:23;3.88;;;3.38;;
19219;SDS011;9744;49.364;7.484;2023-08-17T08:37:50;5.50;;;3.67;;
19219;SDS011;9744;49.364;7.484;2023-08-17T08:40:18;6.13;;;4.72;;
19219;SDS011;9744;49.364;7.484;2023-08-17T08:42:46;6.00;;;4.93;;
19219;SDS011;9744;49.364;7.484;2023-08-17T08:45:13;6.18;;;5.07;;
19219;SDS011;9744;49.364;7.484;2023-08-17T08:47:42;5.97;;;3.97;;
19219;SDS011;9744;49.364;7.484;2023-08-17T08:50:12;4.65;;;3.95;;
19219;SDS011;9744;49.364;7.484;2023-08-17T08:52:48;4.97;;;3.55;;
19219;SDS011;9744;49.364;7.484;2023-08-17T08:55:21;4.75;;;3.30;;
19219;SDS011;9744;49.364;7.484;2023-08-17T08:57:50;3.97;;;3.58;;
19219;SDS011;9744;49.364;7.484;2023-08-17T09:00:21;5.68;;;4.45;;
19219;SDS011;9744;49.364;7.484;2023-08-17T09:02:51;9.43;;;3.67;;
19219;SDS011;9744;49.364;7.484;2023-08-17T09:05:18;12.25;;;4.18;;
19219;SDS011;9744;49.364;7.484;2023-08-17T09:07:48;7.53;;;3.00;;
19219;SDS011;9744;49.364;7.484;2023-08-17T09:10:16;5.95;;;3.30;;
19219;SDS011;9744;49.364;7.484;2023-08-17T09:12:45;4.25;;;2.90;;
19219;SDS011;9744;49.364;7.484;2023-08-17T09:15:13;4.22;;;2.70;;
19219;SDS011;9744;49.364;7.484;2023-08-17T09:17:40;25.92;;;4.75;;
19219;SDS011;9744;49.364;7.484;2023-08-17T09:20:11;15.95;;;3.80;;
19219;SDS011;9744;49.364;7.484;2023-08-17T09:22:38;6.90;;;2.85;;
19219;SDS011;9744;49.364;7.484;2023-08-17T09:25:07;3.78;;;3.03;;
19219;SDS011;9744;49.364;7.484;2023-08-17T09:27:35;8.88;;;2.40;;
19219;SDS011;9744;49.364;7.484;2023-08-17T09:32:35;9.38;;;2.50;;
19219;SDS011;9744;49.364;7.484;2023-08-17T09:35:02;7.30;;;2.78;;
19219;SDS011;9744;49.364;7.484;2023-08-17T09:37:32;6.93;;;2.47;;
19219;SDS011;9744;49.364;7.484;2023-08-17T09:40:00;4.47;;;2.25;;
19219;SDS011;9744;49.364;7.484;2023-08-17T09:42:28;4.03;;;2.20;;
19219;SDS011;9744;49.364;7.484;2023-08-17T09:44:57;7.50;;;2.47;;
19219;SDS011;9744;49.364;7.484;2023-08-17T09:47:26;28.60;;;5.38;;
19219;SDS011;9744;49.364;7.484;2023-08-17T09:49:54;5.70;;;2.47;;
19219;SDS011;9744;49.364;7.484;2023-08-17T09:52:22;7.70;;;2.38;;
19219;SDS011;9744;49.364;7.484;2023-08-17T09:54:51;6.05;;;2.80;;
19219;SDS011;9744;49.364;7.484;2023-08-17T09:57:19;4.47;;;2.30;;
19219;SDS011;9744;49.364;7.484;2023-08-17T09:59:47;5.97;;;1.83;;
19219;SDS011;9744;49.364;7.484;2023-08-17T10:02:17;2.30;;;1.65;;
19219;SDS011;9744;49.364;7.484;2023-08-17T10:04:48;3.70;;;2.00;;
19219;SDS011;9744;49.364;7.484;2023-08-17T10:07:18;3.95;;;2.13;;
19219;SDS011;9744;49.364;7.484;2023-08-17T10:09:48;2.35;;;1.52;;
19219;SDS011;9744;49.364;7.484;2023-08-17T10:12:31;2.65;;;2.15;;
19219;SDS011;9744;49.364;7.484;2023-08-17T10:15:03;3.75;;;2.30;;
19219;SDS011;9744;49.364;7.484;2023-08-17T10:17:35;3.25;;;1.83;;
19219;SDS011;9744;49.364;7.484;2023-08-17T10:20:07;2.60;;;1.63;;
19219;SDS011;9744;49.364;7.484;2023-08-17T10:22:36;2.42;;;1.52;;
19219;SDS011;9744;49.364;7.484;2023-08-17T10:25:08;3.47;;;1.80;;
19219;SDS011;9744;49.364;7.484;2023-08-17T10:27:38;2.78;;;1.92;;
19219;SDS011;9744;49.364;7.484;2023-08-17T10:30:07;1.77;;;1.67;;
19219;SDS011;9744;49.364;7.484;2023-08-17T10:32:35;4.43;;;2.50;;
19219;SDS011;9744;49.364;7.484;2023-08-17T10:35:04;2.88;;;1.92;;
19219;SDS011;9744;49.364;7.484;2023-08-17T10:37:32;4.43;;;1.50;;
19219;SDS011;9744;49.364;7.484;2023-08-17T10:40:01;2.45;;;2.00;;
19219;SDS011;9744;49.364;7.484;2023-08-17T10:42:32;3.80;;;2.10;;
19219;SDS011;9744;49.364;7.484;2023-08-17T10:45:03;3.50;;;2.53;;
19219;SDS011;9744;49.364;7.484;2023-08-17T10:51:02;1.90;;;1.80;;
19219;SDS011;9744;49.364;7.484;2023-08-17T10:53:35;3.65;;;2.00;;
19219;SDS011;9744;49.364;7.484;2023-08-17T10:56:06;2.83;;;1.98;;
19219;SDS011;9744;49.364;7.484;2023-08-17T10:58:34;1.98;;;1.73;;
19219;SDS011;9744;49.364;7.484;2023-08-17T11:01:03;3.35;;;2.50;;
19219;SDS011;9744;49.364;7.484;2023-08-17T11:03:31;2.10;;;1.95;;
19219;SDS011;9744;49.364;7.484;2023-08-17T11:06:14;2.33;;;2.08;;
19219;SDS011;9744;49.364;7.484;2023-08-17T11:09:06;3.10;;;2.40;;
19219;SDS011;9744;49.364;7.484;2023-08-17T11:11:33;4.75;;;2.33;;
19219;SDS011;9744;49.364;7.484;2023-08-17T11:14:04;3.78;;;2.17;;
19219;SDS011;9744;49.364;7.484;2023-08-17T11:16:32;3.47;;;2.10;;
19219;SDS011;9744;49.364;7.484;2023-08-17T11:19:00;2.45;;;2.22;;
19219;SDS011;9744;49.364;7.484;2023-08-17T11:21:27;3.17;;;2.30;;
19219;SDS011;9744;49.364;7.484;2023-08-17T11:23:55;1.77;;;1.67;;
19219;SDS011;9744;49.364;7.484;2023-08-17T11:26:24;5.07;;;2.45;;
19219;SDS011;9744;49.364;7.484;2023-08-17T11:28:53;2.38;;;2.00;;
19219;SDS011;9744;49.364;7.484;2023-08-17T11:31:20;2.35;;;2.05;;
19219;SDS011;9744;49.364;7.484;2023-08-17T11:33:49;3.95;;;2.13;;
19219;SDS011;9744;49.364;7.484;2023-08-17T11:36:17;2.38;;;2.10;;
19219;SDS011;9744;49.364;7.484;2023-08-17T11:38:45;5.25;;;1.90;;
19219;SDS011;9744;49.364;7.484;2023-08-17T11:41:12;1.88;;;1.70;;
19219;SDS011;9744;49.364;7.484;2023-08-17T11:43:42;2.40;;;1.98;;
19219;SDS011;9744;49.364;7.484;2023-08-17T11:46:09;6.43;;;4.30;;
19219;SDS011;9744;49.364;7.484;2023-08-17T11:48:39;7.30;;;4.30;;
19219;SDS011;9744;49.364;7.484;2023-08-17T11:51:08;4.40;;;3.42;;
19219;SDS011;9744;49.364;7.484;2023-08-17T11:53:35;5.57;;;3.50;;
19219;SDS011;9744;49.364;7.484;2023-08-17T11:56:04;7.20;;;4.05;;
19219;SDS011;9744;49.364;7.484;2023-08-17T11:58:41;5.25;;;2.85;;
19219;SDS011;9744;49.364;7.484;2023-08-17T12:01:09;10.27;;;4.63;;
19219;SDS011;9744;49.364;7.484;2023-08-17T12:03:37;4.60;;;4.18;;
19219;SDS011;9744;49.364;7.484;2023-08-17T12:06:06;4.22;;;2.60;;
19219;SDS011;9744;49.364;7.484;2023-08-17T12:08:35;2.85;;;2.63;;
19219;SDS011;9744;49.364;7.484;2023-08-17T12:11:02;3.05;;;2.58;;
19219;SDS011;9744;49.364;7.484;2023-08-17T12:13:34;5.22;;;4.72;;
19219;SDS011;9744;49.364;7.484;2023-08-17T12:16:02;3.38;;;2.17;;
19219;SDS011;9744;49.364;7.484;2023-08-17T12:18:32;4.88;;;3.90;;
19219;SDS011;9744;49.364;7.484;2023-08-17T12:21:03;4.88;;;2.40;;
19219;SDS011;9744;49.364;7.484;2023-08-17T12:23:33;5.15;;;3.50;;
19219;SDS011;9744;49.364;7.484;2023-08-17T12:26:00;5.75;;;5.00;;
19219;SDS011;9744;49.364;7.484;2023-08-17T12:28:28;3.08;;;2.45;;
19219;SDS011;9744;49.364;7.484;2023-08-17T12:30:57;3.38;;;2.17;;
19219;SDS011;9744;49.364;7.484;2023-08-17T12:33:25;3.65;;;2.38;;
19219;SDS011;9744;49.364;7.484;2023-08-17T12:35:53;4.47;;;2.08;;
19219;SDS011;9744;49.364;7.484;2023-08-17T12:38:21;3.15;;;2.70;;
19219;SDS011;9744;49.364;7.484;2023-08-17T12:40:51;4.15;;;2.40;;
19219;SDS011;9744;49.364;7.484;2023-08-17T12:43:18;4.22;;;2.30;;
19219;SDS011;9744;49.364;7.484;2023-08-17T12:45:46;9.02;;;4.30;;
19219;SDS011;9744;49.364;7.484;2023-08-17T12:48:13;7.40;;;2.50;;
19219;SDS011;9744;49.364;7.484;2023-08-17T12:50:41;5.47;;;2.38;;
19219;SDS011;9744;49.364;7.484;2023-08-17T12:53:09;4.13;;;2.58;;
19219;SDS011;9744;49.364;7.484;2023-08-17T12:55:36;3.00;;;2.70;;
19219;SDS011;9744;49.364;7.484;2023-08-17T12:58:07;7.35;;;2.90;;
19219;SDS011;9744;49.364;7.484;2023-08-17T13:00:35;4.32;;;3.50;;
19219;SDS011;9744;49.364;7.484;2023-08-17T13:03:02;2.75;;;2.45;;
19219;SDS011;9744;49.364;7.484;2023-08-17T13:05:36;3.75;;;2.45;;
19219;SDS011;9744;49.364;7.484;2023-08-17T13:08:05;5.55;;;2.55;;
19219;SDS011;9744;49.364;7.484;2023-08-17T13:10:33;3.95;;;2.92;;
19219;SDS011;9744;49.364;7.484;2023-08-17T13:13:01;3.65;;;3.28;;
19219;SDS011;9744;49.364;7.484;2023-08-17T13:15:31;5.90;;;2.95;;
19219;SDS011;9744;49.364;7.484;2023-08-17T13:17:59;5.72;;;3.75;;
19219;SDS011;9744;49.364;7.484;2023-08-17T13:20:26;5.97;;;2.83;;
19219;SDS011;9744;49.364;7.484;2023-08-17T13:22:54;3.72;;;3.33;;
19219;SDS011;9744;49.364;7.484;2023-08-17T13:25:21;2.65;;;2.45;;
19219;SDS011;9744;49.364;7.484;2023-08-17T13:27:48;7.35;;;3.95;;
19219;SDS011;9744;49.364;7.484;2023-08-17T13:30:15;4.82;;;3.50;;
19219;SDS011;9744;49.364;7.484;2023-08-17T13:32:44;4.68;;;3.70;;
19219;SDS011;9744;49.364;7.484;2023-08-17T13:35:11;6.15;;;2.80;;
19219;SDS011;9744;49.364;7.484;2023-08-17T13:37:38;5.35;;;2.78;;
19219;SDS011;9744;49.364;7.484;2023-08-17T13:40:07;3.92;;;3.22;;
19219;SDS011;9744;49.364;7.484;2023-08-17T13:42:36;6.95;;;3.47;;
19219;SDS011;9744;49.364;7.484;2023-08-17T13:45:04;7.28;;;3.33;;
19219;SDS011;9744;49.364;7.484;2023-08-17T13:47:32;3.85;;;3.40;;
19219;SDS011;9744;49.364;7.484;2023-08-17T13:50:00;4.90;;;3.13;;
19219;SDS011;9744;49.364;7.484;2023-08-17T13:52:28;4.93;;;3.50;;
19219;SDS011;9744;49.364;7.484;2023-08-17T13:54:56;3.75;;;3.28;;
19219;SDS011;9744;49.364;7.484;2023-08-17T13:57:23;3.42;;;2.97;;
19219;SDS011;9744;49.364;7.484;2023-08-17T13:59:51;3.55;;;3.13;;
19219;SDS011;9744;49.364;7.484;2023-08-17T14:02:18;4.38;;;2.70;;
19219;SDS011;9744;49.364;7.484;2023-08-17T14:04:46;4.70;;;2.70;;
19219;SDS011;9744;49.364;7.484;2023-08-17T14:07:14;5.28;;;2.75;;
19219;SDS011;9744;49.364;7.484;2023-08-17T14:09:42;5.25;;;2.33;;
19219;SDS011;9744;49.364;7.484;2023-08-17T14:12:10;2.75;;;2.28;;
19219;SDS011;9744;49.364;7.484;2023-08-17T14:14:38;4.53;;;2.78;;
19219;SDS011;9744;49.364;7.484;2023-08-17T14:17:06;4.45;;;2.10;;
19219;SDS011;9744;49.364;7.484;2023-08-17T14:19:33;2.50;;;2.30;;
19219;SDS011;9744;49.364;7.484;2023-08-17T14:22:01;2.92;;;2.17;;
19219;SDS011;9744;49.364;7.484;2023-08-17T14:24:30;2.42;;;2.08;;
19219;SDS011;9744;49.364;7.484;2023-08-17T14:26:58;3.00;;;2.17;;
19219;SDS011;9744;49.364;7.484;2023-08-17T14:29:25;2.00;;;1.90;;
19219;SDS011;9744;49.364;7.484;2023-08-17T14:31:52;6.68;;;2.53;;
19219;SDS011;9744;49.364;7.484;2023-08-17T14:34:20;5.70;;;2.30;;
19219;SDS011;9744;49.364;7.484;2023-08-17T14:36:47;2.40;;;2.20;;
19219;SDS011;9744;49.364;7.484;2023-08-17T14:39:14;2.45;;;2.17;;
19219;SDS011;9744;49.364;7.484;2023-08-17T14:41:43;3.08;;;2.42;;
19219;SDS011;9744;49.364;7.484;2023-08-17T14:44:10;3.72;;;1.98;;
19219;SDS011;9744;49.364;7.484;2023-08-17T14:46:38;5.15;;;2.10;;
19219;SDS011;9744;49.364;7.484;2023-08-17T14:49:07;4.32;;;1.98;;
19219;SDS011;9744;49.364;7.484;2023-08-17T14:51:38;3.13;;;2.10;;
19219;SDS011;9744;49.364;7.484;2023-08-17T14:54:06;2.30;;;2.10;;
19219;SDS011;9744;49.364;7.484;2023-08-17T14:56:33;2.35;;;2.10;;
19219;SDS011;9744;49.364;7.484;2023-08-17T14:59:02;2.33;;;2.13;;
19219;SDS011;9744;49.364;7.484;2023-08-17T15:01:29;4.90;;;2.05;;
19219;SDS011;9744;49.364;7.484;2023-08-17T15:03:58;11.95;;;3.10;;
19219;SDS011;9744;49.364;7.484;2023-08-17T15:06:26;18.83;;;3.33;;
19219;SDS011;9744;49.364;7.484;2023-08-17T15:08:55;5.95;;;2.67;;
19219;SDS011;9744;49.364;7.484;2023-08-17T15:11:23;14.52;;;3.17;;
19219;SDS011;9744;49.364;7.484;2023-08-17T15:13:50;6.47;;;2.38;;